createdAt,value
2022-09-17T00:00:00.725Z,12.6
2022-09-17T00:03:00.866Z,12.6
2022-09-17T00:06:00.762Z,12.6
2022-09-17T00:09:00.768Z,12.6
2022-09-17T00:12:00.765Z,12.6
2022-09-17T00:15:00.715Z,12.6
2022-09-17T00:18:00.719Z,12.6
2022-09-17T00:21:00.763Z,12.4
2022-09-17T00:24:00.775Z,12.4
2022-09-17T00:27:00.782Z,12.4
2022-09-17T00:30:00.826Z,12.4
2022-09-17T00:33:00.684Z,12.4
2022-09-17T00:36:00.724Z,12.3
2022-09-17T00:39:00.734Z,12.3
2022-09-17T00:42:00.787Z,12.3
2022-09-17T00:45:00.724Z,12.3
2022-09-17T00:48:00.762Z,12.3
2022-09-17T00:51:00.782Z,12.3
2022-09-17T00:54:00.741Z,12.3
2022-09-17T00:57:00.817Z,12.3
2022-09-17T01:00:00.766Z,12.3
2022-09-17T01:03:00.766Z,12.3
2022-09-17T01:06:00.723Z,12.3
2022-09-17T01:09:00.736Z,12.3
2022-09-17T01:12:00.834Z,12.3
2022-09-17T01:15:00.721Z,12.3
2022-09-17T01:18:00.728Z,12.3
2022-09-17T01:21:00.737Z,12.3
2022-09-17T01:24:00.751Z,12.3
2022-09-17T01:27:00.736Z,12.3
2022-09-17T01:30:00.779Z,12.3
2022-09-17T01:33:00.724Z,12.3
2022-09-17T01:36:00.824Z,12.3
2022-09-17T01:39:00.699Z,12.3
2022-09-17T01:42:01.032Z,12.3
2022-09-17T01:45:00.719Z,12.3
2022-09-17T01:48:00.736Z,12.3
2022-09-17T01:51:00.697Z,12.3
2022-09-17T01:54:00.877Z,12.3
2022-09-17T01:57:00.950Z,12.3
2022-09-17T02:00:00.761Z,12.3
2022-09-17T02:03:00.919Z,12.3
2022-09-17T02:06:00.718Z,12.3
2022-09-17T02:09:00.767Z,12.3
2022-09-17T02:12:00.898Z,12.3
2022-09-17T02:15:00.758Z,12.3
2022-09-17T02:18:00.739Z,12.3
2022-09-17T02:21:00.707Z,12.3
2022-09-17T02:24:00.803Z,12.3
2022-09-17T02:27:00.897Z,12.3
2022-09-17T02:30:00.742Z,12.3
2022-09-17T02:33:00.685Z,12.3
2022-09-17T02:36:00.751Z,12.3
2022-09-17T02:39:00.821Z,12.3
2022-09-17T02:42:01.035Z,12.3
2022-09-17T02:45:00.835Z,12.3
2022-09-17T02:48:00.734Z,12.3
2022-09-17T02:51:00.799Z,12.3
2022-09-17T02:54:00.768Z,12.2
2022-09-17T02:57:00.894Z,12.2
2022-09-17T03:00:00.761Z,12.2
2022-09-17T03:03:00.726Z,12.2
2022-09-17T03:06:00.769Z,12.1
2022-09-17T03:09:00.735Z,12.1
2022-09-17T03:12:00.751Z,12.1
2022-09-17T03:15:00.759Z,12.1
2022-09-17T03:18:00.815Z,12.1
2022-09-17T03:21:00.724Z,12.1
2022-09-17T03:24:00.712Z,12.1
2022-09-17T03:27:00.701Z,12.1
2022-09-17T03:30:00.773Z,12.1
2022-09-17T03:33:00.722Z,12.1
2022-09-17T03:36:00.757Z,12.1
2022-09-17T03:39:00.745Z,12.1
2022-09-17T03:42:00.722Z,12.1
2022-09-17T03:45:00.738Z,12.1
2022-09-17T03:48:00.746Z,12.1
2022-09-17T03:51:00.731Z,12.1
2022-09-17T03:54:00.873Z,12.1
2022-09-17T03:57:00.710Z,12.1
2022-09-17T04:00:00.812Z,12.1
2022-09-17T04:03:00.826Z,12.1
2022-09-17T04:06:00.833Z,11.9
2022-09-17T04:09:00.800Z,11.9
2022-09-17T04:12:00.724Z,11.9
2022-09-17T04:15:00.767Z,11.9
2022-09-17T04:18:00.733Z,11.9
2022-09-17T04:21:00.783Z,11.9
2022-09-17T04:24:00.764Z,11.9
2022-09-17T04:27:00.860Z,11.9
2022-09-17T04:30:00.818Z,11.9
2022-09-17T04:33:00.736Z,11.9
2022-09-17T04:36:00.733Z,11.9
2022-09-17T04:39:00.785Z,11.9
2022-09-17T04:42:00.902Z,11.9
2022-09-17T04:45:00.719Z,11.9
2022-09-17T04:48:00.705Z,11.9
2022-09-17T04:51:00.743Z,11.9
2022-09-17T04:54:00.789Z,11.9
2022-09-17T04:57:00.751Z,11.9
2022-09-17T05:00:00.746Z,11.9
2022-09-17T05:03:00.771Z,11.9
2022-09-17T05:06:00.794Z,11.7
2022-09-17T05:09:00.939Z,11.7
2022-09-17T05:12:00.801Z,11.7
2022-09-17T05:15:00.738Z,11.7
2022-09-17T05:18:00.783Z,11.7
2022-09-17T05:21:00.768Z,11.7
2022-09-17T05:24:00.763Z,11.7
2022-09-17T05:27:00.774Z,11.7
2022-09-17T05:30:00.948Z,11.7
2022-09-17T05:33:00.743Z,11.7
2022-09-17T05:36:00.779Z,11.7
2022-09-17T05:39:00.753Z,11.7
2022-09-17T05:42:00.766Z,11.7
2022-09-17T05:45:00.766Z,11.7
2022-09-17T05:48:00.768Z,11.7
2022-09-17T05:51:00.776Z,11.7
2022-09-17T05:54:00.790Z,11.7
2022-09-17T05:57:00.743Z,11.7
2022-09-17T06:00:00.900Z,11.8
2022-09-17T06:03:00.872Z,11.8
2022-09-17T06:06:00.788Z,11.8
2022-09-17T06:09:00.788Z,11.8
2022-09-17T06:12:00.813Z,11.8
2022-09-17T06:15:00.745Z,11.8
2022-09-17T06:18:00.737Z,11.8
2022-09-17T06:21:00.795Z,11.8
2022-09-17T06:24:00.707Z,11.8
2022-09-17T06:27:00.802Z,11.8
2022-09-17T06:30:00.813Z,11.8
2022-09-17T06:33:00.825Z,11.8
2022-09-17T06:36:00.771Z,11.8
2022-09-17T06:39:00.768Z,11.8
2022-09-17T06:42:00.737Z,11.8
2022-09-17T06:45:08.690Z,11.8
2022-09-17T06:48:00.749Z,11.8
2022-09-17T06:51:00.738Z,11.8
2022-09-17T06:54:00.774Z,12
2022-09-17T06:57:00.763Z,12
2022-09-17T07:00:00.836Z,12
2022-09-17T07:03:00.774Z,12
2022-09-17T07:06:00.831Z,12
2022-09-17T07:09:00.762Z,12
2022-09-17T07:12:00.790Z,12
2022-09-17T07:15:00.804Z,12.3
2022-09-17T07:18:00.786Z,12.3
2022-09-17T07:21:00.745Z,12.3
2022-09-17T07:24:00.715Z,12.3
2022-09-17T07:27:00.762Z,12.3
2022-09-17T07:30:00.838Z,12.3
2022-09-17T07:33:00.709Z,12.3
2022-09-17T07:36:00.861Z,12.3
2022-09-17T07:39:00.793Z,12.3
2022-09-17T07:42:00.749Z,12.3
2022-09-17T07:45:02.529Z,12.3
2022-09-17T07:48:00.722Z,12.3
2022-09-17T07:51:00.813Z,12.3
2022-09-17T07:54:00.754Z,12.7
2022-09-17T07:57:00.763Z,12.8
2022-09-17T08:00:00.911Z,12.8
2022-09-17T08:03:00.938Z,12.8
2022-09-17T08:06:00.888Z,12.8
2022-09-17T08:09:00.837Z,12.8
2022-09-17T08:12:00.810Z,12.8
2022-09-17T08:15:00.870Z,13.3
2022-09-17T08:18:00.758Z,13.3
2022-09-17T08:21:00.770Z,13.3
2022-09-17T08:24:00.866Z,13.3
2022-09-17T08:27:00.776Z,13.3
2022-09-17T08:30:00.977Z,13.3
2022-09-17T08:33:00.880Z,13.3
2022-09-17T08:36:00.826Z,13.8
2022-09-17T08:39:00.907Z,13.8
2022-09-17T08:42:00.850Z,13.8
2022-09-17T08:45:01.259Z,13.8
2022-09-17T08:48:00.761Z,13.8
2022-09-17T08:51:08.447Z,14
2022-09-17T08:54:00.801Z,14
2022-09-17T08:57:00.744Z,14
2022-09-17T09:00:00.860Z,14
2022-09-17T09:03:00.925Z,14
2022-09-17T09:06:00.753Z,14
2022-09-17T09:09:00.822Z,14
2022-09-17T09:12:00.744Z,14
2022-09-17T09:15:00.771Z,14
2022-09-17T09:18:00.826Z,14
2022-09-17T09:21:00.756Z,14
2022-09-17T09:24:01.115Z,14.1
2022-09-17T09:27:00.763Z,14.1
2022-09-17T09:30:00.867Z,14.1
2022-09-17T09:33:00.728Z,14.1
2022-09-17T09:36:00.761Z,14.1
2022-09-17T09:39:00.768Z,14.1
2022-09-17T09:42:00.774Z,14.1
2022-09-17T09:45:05.604Z,14.3
2022-09-17T09:48:00.778Z,14.3
2022-09-17T09:51:07.040Z,14.3
2022-09-17T09:54:00.838Z,14.3
2022-09-17T09:57:00.801Z,14.3
2022-09-17T10:00:00.901Z,14.3
2022-09-17T10:03:00.873Z,14.3
2022-09-17T10:06:00.873Z,14.3
2022-09-17T10:09:00.714Z,14.3
2022-09-17T10:12:00.833Z,14.5
2022-09-17T10:15:00.758Z,14.5
2022-09-17T10:18:00.837Z,14.5
2022-09-17T10:21:00.771Z,14.5
2022-09-17T10:24:00.858Z,14.5
2022-09-17T10:27:00.739Z,14.5
2022-09-17T10:30:00.980Z,14.5
2022-09-17T10:33:00.750Z,14.5
2022-09-17T10:36:00.737Z,14.5
2022-09-17T10:39:00.743Z,14.9
2022-09-17T10:42:00.808Z,14.9
2022-09-17T10:45:00.734Z,14.9
2022-09-17T10:48:00.731Z,14.9
2022-09-17T10:51:00.760Z,14.9
2022-09-17T10:54:00.743Z,14.9
2022-09-17T10:57:00.781Z,14.9
2022-09-17T11:00:00.817Z,14.9
2022-09-17T11:03:00.823Z,14.9
2022-09-17T11:06:00.735Z,15.1
2022-09-17T11:09:00.799Z,15.1
2022-09-17T11:12:00.776Z,15.1
2022-09-17T11:15:00.805Z,15.1
2022-09-17T11:18:00.749Z,15.1
2022-09-17T11:21:00.811Z,15.1
2022-09-17T11:24:00.893Z,15.1
2022-09-17T11:27:00.768Z,15.1
2022-09-17T11:30:00.856Z,15.1
2022-09-17T11:33:00.793Z,15.1
2022-09-17T11:36:00.767Z,15.1
2022-09-17T11:39:00.801Z,15.5
2022-09-17T11:42:00.767Z,15.5
2022-09-17T11:45:00.754Z,15.5
2022-09-17T11:48:00.779Z,15.5
2022-09-17T11:51:00.737Z,15.7
2022-09-17T11:54:00.768Z,15.7
2022-09-17T11:57:00.728Z,15.7
2022-09-17T12:00:00.801Z,15.7
2022-09-17T12:03:00.882Z,15.7
2022-09-17T12:06:00.774Z,15.7
2022-09-17T12:09:00.793Z,15.7
2022-09-17T12:12:00.743Z,15.7
2022-09-17T12:15:00.738Z,15.7
2022-09-17T12:18:32.063Z,15.7
2022-09-17T12:21:00.770Z,15.7
2022-09-17T12:24:00.768Z,16
2022-09-17T12:27:00.761Z,16
2022-09-17T12:30:01.128Z,16
2022-09-17T12:33:00.739Z,15.8
2022-09-17T12:36:05.680Z,15.8
2022-09-17T12:39:03.563Z,15.7
2022-09-17T12:42:00.742Z,15.7
2022-09-17T12:45:00.694Z,15.7
2022-09-17T12:48:00.776Z,15.2
2022-09-17T12:51:00.714Z,15.2
2022-09-17T12:54:00.776Z,15.2
2022-09-17T12:57:01.527Z,15.2
2022-09-17T13:00:07.847Z,15.2
2022-09-17T13:03:00.725Z,14.7
2022-09-17T13:06:00.807Z,14.7
2022-09-17T13:09:00.788Z,14.4
2022-09-17T13:12:00.775Z,14.4
2022-09-17T13:15:00.713Z,13.9
2022-09-17T13:18:26.406Z,13.9
2022-09-17T13:21:00.744Z,13.9
2022-09-17T13:24:00.942Z,13.4
2022-09-17T13:27:00.818Z,13.4
2022-09-17T13:30:00.763Z,13.4
2022-09-17T13:33:00.783Z,13.1
2022-09-17T13:36:00.809Z,13.1
2022-09-17T13:39:00.837Z,13.1
2022-09-17T13:42:00.774Z,12.6
2022-09-17T13:45:00.715Z,12.6
2022-09-17T13:48:00.770Z,12.6
2022-09-17T13:51:00.736Z,12.6
2022-09-17T13:54:00.908Z,12.6
2022-09-17T13:57:00.737Z,12.6
2022-09-17T14:00:00.795Z,12.6
2022-09-17T14:03:00.795Z,12.6
2022-09-17T14:06:00.793Z,12.6
2022-09-17T14:09:00.724Z,12.6
2022-09-17T14:12:00.774Z,12.6
2022-09-17T14:15:00.769Z,12.2
2022-09-17T14:18:00.811Z,12.2
2022-09-17T14:21:00.713Z,12.2
2022-09-17T14:24:00.714Z,12.2
2022-09-17T14:27:00.765Z,12.3
2022-09-17T14:30:00.830Z,12.3
2022-09-17T14:33:00.763Z,12.3
2022-09-17T14:36:00.820Z,12.3
2022-09-17T14:39:00.748Z,12.3
2022-09-17T14:42:00.777Z,12.3
2022-09-17T14:45:00.933Z,12.3
2022-09-17T14:48:00.832Z,12.3
2022-09-17T14:51:00.697Z,12.3
2022-09-17T14:54:00.764Z,12.2
2022-09-17T14:57:00.759Z,12.2
2022-09-17T15:00:00.825Z,12.2
2022-09-17T15:03:00.887Z,12.2
2022-09-17T15:06:00.748Z,12.2
2022-09-17T15:09:00.754Z,12.2
2022-09-17T15:12:00.790Z,12
2022-09-17T15:15:00.743Z,12
2022-09-17T15:18:00.757Z,12
2022-09-17T15:21:00.854Z,12
2022-09-17T15:24:00.749Z,12
2022-09-17T15:27:00.764Z,12
2022-09-17T15:30:00.837Z,12
2022-09-17T15:33:00.761Z,12
2022-09-17T15:36:00.723Z,12
2022-09-17T15:39:00.741Z,12
2022-09-17T15:42:00.769Z,12
2022-09-17T15:45:00.780Z,12
2022-09-17T15:48:00.729Z,12
2022-09-17T15:51:00.746Z,12
2022-09-17T15:54:00.798Z,12
2022-09-17T15:57:00.737Z,12
2022-09-17T16:00:00.763Z,12
2022-09-17T16:03:00.812Z,12
2022-09-17T16:06:04.924Z,12
2022-09-17T16:09:00.760Z,12
2022-09-17T16:12:00.732Z,12
2022-09-17T16:15:00.789Z,12
2022-09-17T16:18:00.748Z,12
2022-09-17T16:21:00.725Z,12
2022-09-17T16:24:00.836Z,11.8
2022-09-17T16:27:00.823Z,11.8
2022-09-17T16:30:00.724Z,11.8
2022-09-17T16:33:00.738Z,11.8
2022-09-17T16:36:00.761Z,11.8
2022-09-17T16:39:00.763Z,11.8
2022-09-17T16:42:00.770Z,11.8
2022-09-17T16:45:00.723Z,11.5
2022-09-17T16:48:00.732Z,11.5
2022-09-17T16:51:00.771Z,11.5
2022-09-17T16:54:00.776Z,11.5
2022-09-17T16:57:00.766Z,11.5
2022-09-17T17:00:01.020Z,11.5
2022-09-17T17:03:00.906Z,11.5
2022-09-17T17:06:00.792Z,11.5
2022-09-17T17:09:00.827Z,11.5
2022-09-17T17:12:00.736Z,11.5
2022-09-17T17:15:00.789Z,11.5
2022-09-17T17:18:00.812Z,11.4
2022-09-17T17:21:00.713Z,11.4
2022-09-17T17:24:00.770Z,11.4
2022-09-17T17:27:00.717Z,11.4
2022-09-17T17:30:00.802Z,11.4
2022-09-17T17:33:00.742Z,11.4
2022-09-17T17:36:08.062Z,11.4
2022-09-17T17:39:00.733Z,11.4
2022-09-17T17:42:00.718Z,11.4
2022-09-17T17:45:00.773Z,11.4
2022-09-17T17:48:00.696Z,11.3
2022-09-17T17:51:00.911Z,11.3
2022-09-17T17:54:00.740Z,11.3
2022-09-17T17:57:00.704Z,11.3
2022-09-17T18:00:00.762Z,11.3
2022-09-17T18:03:01.019Z,11.3
2022-09-17T18:06:01.025Z,11.3
2022-09-17T18:09:00.761Z,11.3
2022-09-17T18:12:00.737Z,11.3
2022-09-17T18:15:00.751Z,11.3
2022-09-17T18:18:00.698Z,11.2
2022-09-17T18:21:00.924Z,11.2
2022-09-17T18:24:00.734Z,11.2
2022-09-17T18:27:00.739Z,11.2
2022-09-17T18:30:00.747Z,11.2
2022-09-17T18:33:00.743Z,11.2
2022-09-17T18:36:00.915Z,11.2
2022-09-17T18:42:00.758Z,11.2
2022-09-17T18:45:00.769Z,11.2
2022-09-17T18:48:00.715Z,11.2
2022-09-17T18:51:01.120Z,11.1
2022-09-17T18:54:00.738Z,11.1
2022-09-17T18:57:00.758Z,11.1
2022-09-17T19:00:00.773Z,11.1
2022-09-17T19:03:00.771Z,11.1
2022-09-17T19:06:00.826Z,11.1
2022-09-17T19:09:00.767Z,11.1
2022-09-17T19:12:00.784Z,11.1
2022-09-17T19:15:00.771Z,11.1
2022-09-17T19:18:00.731Z,10.9
2022-09-17T19:21:00.792Z,10.9
2022-09-17T19:24:00.758Z,10.9
2022-09-17T19:27:00.755Z,10.9
2022-09-17T19:30:00.794Z,10.9
2022-09-17T19:33:00.742Z,10.9
2022-09-17T19:36:00.744Z,10.9
2022-09-17T19:39:00.847Z,10.9
2022-09-17T19:42:02.208Z,10.8
2022-09-17T19:45:00.810Z,10.8
2022-09-17T19:48:00.764Z,10.8
2022-09-17T19:51:00.750Z,10.8
2022-09-17T19:54:00.774Z,10.8
2022-09-17T19:57:00.717Z,10.8
2022-09-17T20:00:00.795Z,10.8
2022-09-17T20:03:00.822Z,10.8
2022-09-17T20:06:00.798Z,10.8
2022-09-17T20:09:00.771Z,10.8
2022-09-17T20:12:00.771Z,10.8
2022-09-17T20:15:00.778Z,10.8
2022-09-17T20:18:00.813Z,10.8
2022-09-17T20:21:00.936Z,10.8
2022-09-17T20:24:00.727Z,10.8
2022-09-17T20:27:00.721Z,10.8
2022-09-17T20:30:00.779Z,10.8
2022-09-17T20:33:00.794Z,10.8
2022-09-17T20:36:00.923Z,10.8
2022-09-17T20:39:22.619Z,10.8
2022-09-17T20:42:00.747Z,10.8
2022-09-17T20:45:00.883Z,10.8
2022-09-17T20:48:00.740Z,10.8
2022-09-17T20:51:01.013Z,10.8
2022-09-17T20:54:00.819Z,10.8
2022-09-17T20:57:00.696Z,10.8
2022-09-17T21:00:00.780Z,10.8
2022-09-17T21:03:00.751Z,10.7
2022-09-17T21:06:00.934Z,10.7
2022-09-17T21:09:00.908Z,10.7
2022-09-17T21:12:00.762Z,10.7
2022-09-17T21:15:00.729Z,10.7
2022-09-17T21:18:00.748Z,10.7
2022-09-17T21:21:00.890Z,10.7
2022-09-17T21:24:00.892Z,10.7
2022-09-17T21:27:00.733Z,10.7
2022-09-17T21:30:00.734Z,10.7
2022-09-17T21:33:00.772Z,10.7
2022-09-17T21:36:01.016Z,10.7
2022-09-17T21:39:00.876Z,10.7
2022-09-17T21:42:00.752Z,10.7
2022-09-17T21:45:00.757Z,10.7
2022-09-17T21:48:00.749Z,10.7
2022-09-17T21:51:00.971Z,10.7
2022-09-17T21:54:01.053Z,10.7
2022-09-17T21:57:00.879Z,10.7
2022-09-17T22:00:00.925Z,10.7
2022-09-17T22:03:00.800Z,10.5
2022-09-17T22:06:00.845Z,10.5
2022-09-17T22:09:00.875Z,10.5
2022-09-17T22:12:00.779Z,10.5
2022-09-17T22:15:00.720Z,10.5
2022-09-17T22:18:01.560Z,10.5
2022-09-17T22:21:00.810Z,10.5
2022-09-17T22:24:00.861Z,10.5
2022-09-17T22:27:00.784Z,10.5
2022-09-17T22:30:00.739Z,10.5
2022-09-17T22:33:00.733Z,10.5
2022-09-17T22:36:00.755Z,10.5
2022-09-17T22:39:00.847Z,10.5
2022-09-17T22:42:00.736Z,10.5
2022-09-17T22:45:00.707Z,10.5
2022-09-17T22:48:00.734Z,10.5
2022-09-17T22:51:00.783Z,10.5
2022-09-17T22:54:00.938Z,10.4
2022-09-17T22:57:00.718Z,10.4
2022-09-17T23:00:00.788Z,10.4
2022-09-17T23:03:00.824Z,10.4
2022-09-17T23:06:00.818Z,10.4
2022-09-17T23:09:00.873Z,10.4
2022-09-17T23:12:00.798Z,10.4
2022-09-17T23:15:00.772Z,10.4
2022-09-17T23:18:00.821Z,10.4
2022-09-17T23:21:00.711Z,10.4
2022-09-17T23:24:00.831Z,10.4
2022-09-17T23:27:00.779Z,10.4
2022-09-17T23:30:00.713Z,10.4
2022-09-17T23:33:00.746Z,10.4
2022-09-17T23:36:01.049Z,10.4
2022-09-17T23:39:00.900Z,10.4
2022-09-17T23:42:00.760Z,10.4
2022-09-17T23:45:00.713Z,10.4
2022-09-17T23:48:00.752Z,10.4
2022-09-17T23:51:01.026Z,10.4
2022-09-17T23:54:01.000Z,10.4
2022-09-17T23:57:00.763Z,10.4
